Time;durP1;ratioP1;P1;durP2;ratioP2;P2;SDS_P1;SDS_P2;PMS_P1;PMS_P2;Temp;Humidity;BMP_temperature;BMP_pressure;BME280_temperature;BME280_humidity;BME280_pressure;Samples;Min_cycle;Max_cycle;Signal;HPM_P1;HPM_P2
2023/03/01 00:01:02;;;;;;;51.77;27.30;;;;;;;;;;767063;180;920577;-67
2023/03/01 00:03:27;;;;;;;51.63;28.08;;;;;;;;;;775846;179;920994;-67
2023/03/01 00:05:53;;;;;;;52.57;25.67;;;;;;;;;;784831;178;817539;-67
2023/03/01 00:08:19;;;;;;;49.73;26.27;;;;;;;;;;767795;181;813848;-68
2023/03/01 00:10:45;;;;;;;60.10;33.47;;;;;;;;;;764072;182;914333;-65
2023/03/01 00:13:11;;;;;;;57.23;30.37;;;;;;;;;;771489;181;817452;-66
2023/03/01 00:15:38;;;;;;;51.20;26.07;;;;;;;;;;765918;183;811456;-65
2023/03/01 00:18:03;;;;;;;57.83;27.27;;;;;;;;;;768842;181;918149;-68
2023/03/01 00:20:29;;;;;;;55.47;30.40;;;;;;;;;;772065;182;921737;-67
2023/03/01 00:22:55;;;;;;;61.78;30.02;;;;;;;;;;767535;181;919186;-67
2023/03/01 00:25:21;;;;;;;57.23;29.50;;;;;;;;;;768980;182;816647;-67
2023/03/01 00:27:48;;;;;;;53.43;27.97;;;;;;;;;;775540;182;615337;-67
2023/03/01 00:30:13;;;;;;;66.27;31.30;;;;;;;;;;770824;182;914411;-65
2023/03/01 00:32:38;;;;;;;48.63;28.13;;;;;;;;;;774329;180;898086;-65
2023/03/01 00:35:05;;;;;;;49.47;29.00;;;;;;;;;;778500;178;618446;-65
2023/03/01 00:37:30;;;;;;;63.03;33.67;;;;;;;;;;774639;182;811620;-66
2023/03/01 00:39:56;;;;;;;55.10;30.57;;;;;;;;;;773497;181;629104;-67
2023/03/01 00:42:23;;;;;;;57.95;30.37;;;;;;;;;;769754;181;918684;-67
2023/03/01 00:44:48;;;;;;;53.33;28.50;;;;;;;;;;769868;183;915205;-65
2023/03/01 00:47:14;;;;;;;46.43;27.67;;;;;;;;;;778374;180;629636;-67
2023/03/01 00:49:39;;;;;;;54.00;30.10;;;;;;;;;;775321;180;920173;-65
2023/03/01 00:52:05;;;;;;;55.57;28.23;;;;;;;;;;774431;181;918619;-66
2023/03/01 00:54:31;;;;;;;60.73;27.47;;;;;;;;;;769942;181;924359;-67
2023/03/01 00:56:57;;;;;;;48.63;27.70;;;;;;;;;;768588;181;919118;-68
2023/03/01 00:59:23;;;;;;;43.30;26.10;;;;;;;;;;770999;181;916516;-67
2023/03/01 01:01:49;;;;;;;56.87;27.37;;;;;;;;;;777126;180;917952;-66
2023/03/01 01:04:14;;;;;;;53.50;30.27;;;;;;;;;;771554;181;918736;-66
2023/03/01 01:06:42;;;;;;;47.90;27.27;;;;;;;;;;771901;181;919081;-68
2023/03/01 01:09:06;;;;;;;55.85;31.40;;;;;;;;;;779781;180;816642;-67
2023/03/01 01:11:32;;;;;;;50.80;25.07;;;;;;;;;;771447;181;926785;-68
2023/03/01 01:13:58;;;;;;;48.90;29.43;;;;;;;;;;772725;179;922039;-66
2023/03/01 01:16:24;;;;;;;53.13;30.47;;;;;;;;;;780360;180;989219;-66
2023/03/01 01:18:50;;;;;;;49.10;30.47;;;;;;;;;;775408;180;915639;-65
2023/03/01 01:21:15;;;;;;;53.40;27.95;;;;;;;;;;771031;180;915128;-68
2023/03/01 01:23:41;;;;;;;61.97;31.70;;;;;;;;;;773447;180;909517;-65
2023/03/01 01:26:07;;;;;;;47.27;27.47;;;;;;;;;;767018;181;916495;-65
2023/03/01 01:28:33;;;;;;;58.40;29.58;;;;;;;;;;772568;180;918116;-66
2023/03/01 01:30:59;;;;;;;54.43;30.83;;;;;;;;;;772327;181;914899;-67
2023/03/01 01:33:25;;;;;;;54.63;29.70;;;;;;;;;;777679;181;915251;-66
2023/03/01 01:35:50;;;;;;;65.73;30.40;;;;;;;;;;772687;181;921071;-66
2023/03/01 01:38:16;;;;;;;54.93;28.90;;;;;;;;;;770309;181;919242;-65
2023/03/01 01:40:44;;;;;;;49.70;27.53;;;;;;;;;;774244;181;912028;-66
2023/03/01 01:43:20;;;;;;;51.40;26.93;;;;;;;;;;771574;181;916947;-65
2023/03/01 01:45:46;;;;;;;51.13;28.13;;;;;;;;;;766644;182;914168;-67
2023/03/01 01:48:12;;;;;;;54.37;28.30;;;;;;;;;;766930;181;1022242;-66
2023/03/01 01:50:39;;;;;;;63.10;29.00;;;;;;;;;;770304;179;919774;-73
2023/03/01 01:53:04;;;;;;;60.17;29.27;;;;;;;;;;769730;182;913528;-65
2023/03/01 01:55:30;;;;;;;61.97;30.17;;;;;;;;;;768373;182;920273;-65
2023/03/01 01:57:56;;;;;;;60.33;32.90;;;;;;;;;;773758;181;918815;-65
2023/03/01 02:00:22;;;;;;;56.73;32.07;;;;;;;;;;780072;179;919332;-66
2023/03/01 02:02:48;;;;;;;48.47;27.97;;;;;;;;;;767558;182;921802;-67
2023/03/01 02:05:17;;;;;;;64.28;33.15;;;;;;;;;;769564;182;816111;-67
2023/03/01 02:07:43;;;;;;;56.27;30.37;;;;;;;;;;773624;181;919415;-68
2023/03/01 02:10:09;;;;;;;51.60;28.33;;;;;;;;;;774475;180;907553;-67
2023/03/01 02:12:35;;;;;;;64.60;32.13;;;;;;;;;;770718;181;919156;-68
2023/03/01 02:15:01;;;;;;;51.17;25.27;;;;;;;;;;769468;183;916219;-67
2023/03/01 02:17:27;;;;;;;48.20;27.23;;;;;;;;;;763301;182;921107;-65
2023/03/01 02:19:59;;;;;;;44.97;24.60;;;;;;;;;;772730;181;919226;-67
2023/03/01 02:22:24;;;;;;;49.30;27.80;;;;;;;;;;771717;181;921583;-66
2023/03/01 02:24:50;;;;;;;54.40;30.73;;;;;;;;;;778421;180;919139;-65
2023/03/01 02:27:16;;;;;;;46.67;25.03;;;;;;;;;;773160;180;915260;-67
2023/03/01 02:29:43;;;;;;;56.67;29.90;;;;;;;;;;771288;179;918880;-65
2023/03/01 02:32:08;;;;;;;54.07;29.97;;;;;;;;;;771708;181;919255;-68
2023/03/01 02:34:34;;;;;;;52.67;27.60;;;;;;;;;;771336;181;918032;-67
2023/03/01 02:37:00;;;;;;;54.53;29.03;;;;;;;;;;774946;180;917418;-65
2023/03/01 02:39:27;;;;;;;61.03;25.80;;;;;;;;;;766333;180;915802;-66
2023/03/01 02:41:53;;;;;;;62.27;30.23;;;;;;;;;;768472;183;921080;-67
2023/03/01 02:44:19;;;;;;;50.43;24.70;;;;;;;;;;768250;181;920339;-67
2023/03/01 02:46:44;;;;;;;50.77;25.77;;;;;;;;;;774441;180;918993;-65
2023/03/01 02:49:16;;;;;;;59.73;24.50;;;;;;;;;;779472;180;912582;-69
2023/03/01 02:51:42;;;;;;;47.83;24.10;;;;;;;;;;774274;180;920970;-64
2023/03/01 02:54:21;;;;;;;56.00;32.10;;;;;;;;;;772913;181;913809;-66
2023/03/01 02:56:48;;;;;;;51.17;22.23;;;;;;;;;;768455;179;919456;-67
2023/03/01 02:59:14;;;;;;;41.30;21.95;;;;;;;;;;774553;181;919094;-66
2023/03/01 03:01:40;;;;;;;54.77;28.37;;;;;;;;;;777194;175;816329;-66
2023/03/01 03:04:05;;;;;;;54.30;31.00;;;;;;;;;;771178;181;858391;-67
2023/03/01 03:06:31;;;;;;;64.37;31.10;;;;;;;;;;772467;181;914774;-65
2023/03/01 03:08:57;;;;;;;54.27;31.70;;;;;;;;;;774040;180;884095;-67
2023/03/01 03:11:23;;;;;;;59.55;33.05;;;;;;;;;;768132;181;919794;-65
2023/03/01 03:13:49;;;;;;;57.50;30.27;;;;;;;;;;768394;180;919085;-67
2023/03/01 03:16:15;;;;;;;43.50;24.30;;;;;;;;;;767139;184;918500;-65
2023/03/01 03:18:41;;;;;;;52.37;26.87;;;;;;;;;;765304;181;918966;-65
2023/03/01 03:21:07;;;;;;;77.80;35.97;;;;;;;;;;771481;181;921933;-67
2023/03/01 03:23:33;;;;;;;64.73;34.77;;;;;;;;;;774218;181;918956;-64
2023/03/01 03:25:59;;;;;;;68.50;33.40;;;;;;;;;;763903;181;919588;-65
2023/03/01 03:28:25;;;;;;;73.07;34.67;;;;;;;;;;769011;181;919038;-67
2023/03/01 03:30:51;;;;;;;70.17;34.33;;;;;;;;;;770603;181;918300;-67
2023/03/01 03:33:16;;;;;;;77.90;35.07;;;;;;;;;;775322;179;918439;-67
2023/03/01 03:35:43;;;;;;;51.37;29.27;;;;;;;;;;768735;177;919973;-66
2023/03/01 03:38:15;;;;;;;61.70;34.00;;;;;;;;;;768872;180;920609;-67
2023/03/01 03:40:35;;;;;;;73.30;36.72;;;;;;;;;;777517;180;822394;-66
2023/03/01 03:43:01;;;;;;;67.73;33.37;;;;;;;;;;771182;180;819402;-66
2023/03/01 03:45:27;;;;;;;58.22;31.15;;;;;;;;;;766774;182;919274;-65
2023/03/01 03:47:53;;;;;;;72.17;35.87;;;;;;;;;;772046;182;1014828;-65
2023/03/01 03:50:19;;;;;;;72.47;35.40;;;;;;;;;;772474;181;880982;-67
2023/03/01 03:52:45;;;;;;;76.70;38.47;;;;;;;;;;772560;180;922140;-67
2023/03/01 03:55:10;;;;;;;67.30;36.17;;;;;;;;;;770995;181;920928;-66
2023/03/01 03:57:37;;;;;;;73.57;37.03;;;;;;;;;;773747;182;919135;-65
2023/03/01 04:00:05;;;;;;;68.30;35.23;;;;;;;;;;770753;181;919074;-67
2023/03/01 04:02:29;;;;;;;79.10;37.57;;;;;;;;;;772951;180;892589;-68
2023/03/01 04:04:55;;;;;;;72.80;35.60;;;;;;;;;;779917;180;817782;-69
2023/03/01 04:07:21;;;;;;;67.60;35.97;;;;;;;;;;773939;181;917580;-66
2023/03/01 04:09:47;;;;;;;76.43;38.10;;;;;;;;;;765777;179;919065;-65
2023/03/01 04:12:13;;;;;;;73.07;36.90;;;;;;;;;;767799;183;916220;-68
2023/03/01 04:14:39;;;;;;;79.00;39.97;;;;;;;;;;770190;180;918260;-68
2023/03/01 04:17:05;;;;;;;84.43;40.30;;;;;;;;;;771233;181;920014;-67
2023/03/01 04:19:35;;;;;;;78.13;39.17;;;;;;;;;;770646;181;918174;-67
2023/03/01 04:21:56;;;;;;;62.03;34.70;;;;;;;;;;776503;181;918102;-67
2023/03/01 04:24:22;;;;;;;76.50;41.67;;;;;;;;;;770733;181;915974;-65
2023/03/01 04:26:49;;;;;;;83.97;44.80;;;;;;;;;;766141;179;922595;-68
2023/03/01 04:29:14;;;;;;;82.40;39.00;;;;;;;;;;774748;182;820749;-66
2023/03/01 04:31:40;;;;;;;95.20;52.93;;;;;;;;;;770388;181;921836;-65
2023/03/01 04:34:06;;;;;;;119.60;64.93;;;;;;;;;;768131;180;916586;-65
2023/03/01 04:36:32;;;;;;;162.60;82.27;;;;;;;;;;775782;180;919784;-68
2023/03/01 04:38:58;;;;;;;97.93;51.30;;;;;;;;;;770485;181;918897;-68
2023/03/01 04:41:24;;;;;;;100.37;53.73;;;;;;;;;;766721;181;920536;-66
2023/03/01 04:43:49;;;;;;;93.97;52.77;;;;;;;;;;764434;182;914151;-67
2023/03/01 04:46:15;;;;;;;99.13;52.10;;;;;;;;;;778620;180;915676;-66
2023/03/01 04:48:41;;;;;;;107.23;50.90;;;;;;;;;;776134;180;916413;-66
2023/03/01 04:51:08;;;;;;;103.82;43.05;;;;;;;;;;772775;180;917075;-66
2023/03/01 04:53:33;;;;;;;82.20;43.20;;;;;;;;;;778585;180;916292;-65
2023/03/01 04:55:59;;;;;;;82.30;43.37;;;;;;;;;;764874;179;1016810;-68
2023/03/01 04:58:25;;;;;;;73.15;39.70;;;;;;;;;;766573;182;918120;-66
2023/03/01 05:00:51;;;;;;;85.67;45.13;;;;;;;;;;774159;181;826729;-69
2023/03/01 05:03:18;;;;;;;68.83;37.23;;;;;;;;;;764135;179;1741944;-66
2023/03/01 05:05:44;;;;;;;85.93;44.20;;;;;;;;;;771224;181;816639;-66
2023/03/01 05:08:17;;;;;;;81.43;42.27;;;;;;;;;;770907;181;919744;-68
2023/03/01 05:10:35;;;;;;;84.62;43.35;;;;;;;;;;769009;181;917626;-68
2023/03/01 05:13:00;;;;;;;99.90;47.83;;;;;;;;;;765115;180;917791;-67
2023/03/01 05:15:27;;;;;;;93.87;44.37;;;;;;;;;;769850;180;921636;-66
2023/03/01 05:17:52;;;;;;;95.83;46.40;;;;;;;;;;775605;181;917782;-66
2023/03/01 05:20:22;;;;;;;98.70;51.73;;;;;;;;;;774395;178;819351;-66
2023/03/01 05:22:44;;;;;;;79.90;42.88;;;;;;;;;;770892;180;920694;-65
2023/03/01 05:25:10;;;;;;;90.23;44.07;;;;;;;;;;771087;181;923520;-68
2023/03/01 05:27:36;;;;;;;91.67;48.43;;;;;;;;;;769635;181;821325;-66
2023/03/01 05:30:13;;;;;;;94.17;46.30;;;;;;;;;;768024;181;875174;-68
2023/03/01 05:32:31;;;;;;;111.37;50.60;;;;;;;;;;770661;181;918113;-68
2023/03/01 05:34:54;;;;;;;102.27;48.00;;;;;;;;;;765468;181;816150;-66
2023/03/01 05:37:19;;;;;;;92.83;46.97;;;;;;;;;;772366;180;816987;-66
2023/03/01 05:39:45;;;;;;;87.03;46.00;;;;;;;;;;769593;181;816574;-68
2023/03/01 05:42:11;;;;;;;85.60;48.00;;;;;;;;;;766782;181;913139;-68
2023/03/01 05:44:37;;;;;;;94.03;43.60;;;;;;;;;;768534;181;916731;-67
2023/03/01 05:47:03;;;;;;;95.87;48.60;;;;;;;;;;771851;181;919508;-65
2023/03/01 05:49:29;;;;;;;85.80;43.00;;;;;;;;;;774254;181;919250;-65
2023/03/01 05:51:55;;;;;;;96.50;44.37;;;;;;;;;;771157;180;912346;-67
2023/03/01 05:54:21;;;;;;;94.87;47.40;;;;;;;;;;770411;181;920353;-65
2023/03/01 05:56:47;;;;;;;97.73;45.20;;;;;;;;;;771645;179;1022538;-67
2023/03/01 05:59:13;;;;;;;103.13;49.60;;;;;;;;;;764758;180;918847;-65
2023/03/01 06:01:38;;;;;;;109.07;48.40;;;;;;;;;;770254;180;929898;-67
2023/03/01 06:04:04;;;;;;;90.77;45.80;;;;;;;;;;772101;180;1018637;-65
2023/03/01 06:06:30;;;;;;;111.00;48.08;;;;;;;;;;772034;180;912444;-65
2023/03/01 06:08:56;;;;;;;80.50;42.20;;;;;;;;;;767616;180;911274;-68
2023/03/01 06:11:22;;;;;;;103.40;44.40;;;;;;;;;;769291;181;921558;-66
2023/03/01 06:13:48;;;;;;;113.30;49.30;;;;;;;;;;771844;181;899929;-68
2023/03/01 06:16:13;;;;;;;91.17;44.57;;;;;;;;;;771474;180;819520;-68
2023/03/01 06:18:39;;;;;;;90.70;45.00;;;;;;;;;;773766;181;918954;-66
2023/03/01 06:21:05;;;;;;;87.70;43.53;;;;;;;;;;777923;180;919109;-68
2023/03/01 06:23:31;;;;;;;92.47;44.13;;;;;;;;;;771214;180;815710;-66
2023/03/01 06:25:57;;;;;;;94.93;50.00;;;;;;;;;;767582;181;893505;-67
2023/03/01 06:28:23;;;;;;;76.73;42.60;;;;;;;;;;768831;180;918612;-66
2023/03/01 06:30:49;;;;;;;89.23;46.30;;;;;;;;;;771679;179;926473;-66
2023/03/01 06:33:14;;;;;;;90.60;39.30;;;;;;;;;;767159;181;919435;-68
2023/03/01 06:35:40;;;;;;;89.37;45.53;;;;;;;;;;770713;181;927164;-65
2023/03/01 06:38:06;;;;;;;82.33;42.87;;;;;;;;;;777984;180;869774;-66
2023/03/01 06:40:32;;;;;;;88.17;41.97;;;;;;;;;;769082;180;917742;-66
2023/03/01 06:42:58;;;;;;;96.23;44.60;;;;;;;;;;767857;181;827701;-64
2023/03/01 06:45:24;;;;;;;81.60;45.00;;;;;;;;;;773337;181;848418;-64
2023/03/01 06:47:50;;;;;;;76.50;42.03;;;;;;;;;;765053;181;920291;-64
2023/03/01 06:50:15;;;;;;;77.90;37.50;;;;;;;;;;765336;181;920091;-66
2023/03/01 06:52:43;;;;;;;79.97;40.90;;;;;;;;;;771750;180;925859;-66
2023/03/01 06:55:08;;;;;;;82.50;37.90;;;;;;;;;;773918;179;940750;-63
2023/03/01 06:57:33;;;;;;;70.23;32.37;;;;;;;;;;765946;181;919494;-64
2023/03/01 06:59:59;;;;;;;54.07;24.60;;;;;;;;;;767204;179;815991;-68
2023/03/01 07:02:25;;;;;;;86.80;38.63;;;;;;;;;;776212;181;829725;-65
2023/03/01 07:04:51;;;;;;;92.00;44.77;;;;;;;;;;767562;179;915223;-65
2023/03/01 07:07:17;;;;;;;78.70;39.67;;;;;;;;;;766380;180;914129;-65
2023/03/01 07:09:43;;;;;;;67.85;34.45;;;;;;;;;;771618;181;913389;-67
2023/03/01 07:12:09;;;;;;;68.17;34.33;;;;;;;;;;775456;179;914992;-67
2023/03/01 07:14:34;;;;;;;54.70;29.13;;;;;;;;;;774741;181;874255;-65
2023/03/01 07:17:00;;;;;;;47.92;30.23;;;;;;;;;;773612;181;917663;-64
2023/03/01 07:19:26;;;;;;;89.73;39.33;;;;;;;;;;767420;181;918711;-65
2023/03/01 07:21:52;;;;;;;87.77;41.13;;;;;;;;;;769864;181;918450;-67
2023/03/01 07:24:18;;;;;;;46.63;27.10;;;;;;;;;;764050;181;1021341;-68
2023/03/01 07:26:44;;;;;;;65.20;35.83;;;;;;;;;;776973;181;920071;-65
2023/03/01 07:29:09;;;;;;;39.33;20.30;;;;;;;;;;767165;181;937470;-65
2023/03/01 07:31:36;;;;;;;75.25;39.13;;;;;;;;;;767582;180;1024571;-65
2023/03/01 07:34:01;;;;;;;81.50;43.60;;;;;;;;;;775978;181;920003;-68
2023/03/01 07:36:27;;;;;;;75.77;37.57;;;;;;;;;;773565;180;919851;-64
2023/03/01 07:38:55;;;;;;;53.10;26.13;;;;;;;;;;773952;181;919249;-64
2023/03/01 07:41:19;;;;;;;59.37;30.33;;;;;;;;;;778708;180;918792;-68
2023/03/01 07:43:45;;;;;;;47.00;22.60;;;;;;;;;;773015;181;918496;-69
2023/03/01 07:46:10;;;;;;;33.78;17.17;;;;;;;;;;773859;181;857821;-63
2023/03/01 07:48:36;;;;;;;83.50;41.37;;;;;;;;;;771584;181;938784;-68
2023/03/01 07:51:02;;;;;;;69.63;36.57;;;;;;;;;;774596;178;919281;-63
2023/03/01 07:53:28;;;;;;;65.55;32.58;;;;;;;;;;764258;181;852920;-68
2023/03/01 07:56:00;;;;;;;60.17;31.80;;;;;;;;;;772187;180;872969;-64
2023/03/01 07:58:26;;;;;;;40.80;25.00;;;;;;;;;;773169;182;809082;-69
2023/03/01 08:00:51;;;;;;;98.47;45.73;;;;;;;;;;767171;181;920106;-68
2023/03/01 08:03:17;;;;;;;59.30;25.27;;;;;;;;;;764521;181;915985;-68
2023/03/01 08:05:43;;;;;;;40.30;21.73;;;;;;;;;;770801;181;920887;-68
2023/03/01 08:08:09;;;;;;;38.67;20.53;;;;;;;;;;772253;178;919390;-68
2023/03/01 08:10:35;;;;;;;31.70;17.45;;;;;;;;;;763706;181;916936;-69
2023/03/01 08:13:01;;;;;;;84.00;39.70;;;;;;;;;;762543;181;917858;-70
2023/03/01 08:15:26;;;;;;;121.57;46.17;;;;;;;;;;774995;180;918647;-69
2023/03/01 08:17:52;;;;;;;53.03;28.93;;;;;;;;;;773389;181;918482;-67
2023/03/01 08:20:18;;;;;;;64.77;34.57;;;;;;;;;;770727;181;918785;-68
2023/03/01 08:22:44;;;;;;;66.57;36.50;;;;;;;;;;774871;180;936607;-69
2023/03/01 08:25:10;;;;;;;54.83;31.33;;;;;;;;;;768717;180;913531;-66
2023/03/01 08:27:36;;;;;;;45.37;21.67;;;;;;;;;;772236;179;907965;-66
2023/03/01 08:30:02;;;;;;;66.70;28.20;;;;;;;;;;769540;180;918740;-66
2023/03/01 08:32:27;;;;;;;68.63;33.57;;;;;;;;;;764426;182;833213;-69
2023/03/01 08:34:53;;;;;;;38.03;20.43;;;;;;;;;;766586;181;919644;-67
2023/03/01 08:37:19;;;;;;;57.67;32.00;;;;;;;;;;771159;181;917644;-65
2023/03/01 08:39:45;;;;;;;52.43;26.00;;;;;;;;;;776082;181;918938;-68
2023/03/01 08:42:11;;;;;;;43.37;22.10;;;;;;;;;;768995;181;919960;-65
2023/03/01 08:44:37;;;;;;;54.90;28.17;;;;;;;;;;768960;180;925559;-65
2023/03/01 08:47:04;;;;;;;192.67;93.07;;;;;;;;;;774078;181;918754;-68
2023/03/01 08:49:28;;;;;;;127.27;57.87;;;;;;;;;;764491;181;918254;-65
2023/03/01 08:51:54;;;;;;;76.33;39.23;;;;;;;;;;770598;180;919236;-69
2023/03/01 08:54:20;;;;;;;65.47;35.27;;;;;;;;;;777633;181;920077;-68
2023/03/01 08:56:46;;;;;;;34.30;19.10;;;;;;;;;;773502;181;917195;-69
2023/03/01 08:59:12;;;;;;;61.77;33.43;;;;;;;;;;774082;181;921123;-66
2023/03/01 09:01:38;;;;;;;49.27;21.37;;;;;;;;;;773364;181;919367;-64
2023/03/01 09:04:03;;;;;;;51.30;27.90;;;;;;;;;;774858;179;918339;-68
2023/03/01 09:06:30;;;;;;;25.23;15.07;;;;;;;;;;769256;180;917246;-69
2023/03/01 09:08:56;;;;;;;43.57;19.07;;;;;;;;;;771631;181;915642;-68
2023/03/01 09:11:22;;;;;;;44.83;21.30;;;;;;;;;;775122;182;815895;-68
2023/03/01 09:13:47;;;;;;;45.87;27.80;;;;;;;;;;765918;182;919405;-64
2023/03/01 09:16:13;;;;;;;55.23;29.27;;;;;;;;;;769399;181;922775;-64
2023/03/01 09:18:40;;;;;;;52.03;22.27;;;;;;;;;;774119;181;914551;-69
2023/03/01 09:21:07;;;;;;;55.50;29.40;;;;;;;;;;773881;180;815420;-67
2023/03/01 09:23:32;;;;;;;40.70;21.73;;;;;;;;;;766341;182;915972;-67
2023/03/01 09:25:58;;;;;;;32.83;18.40;;;;;;;;;;766362;182;917995;-69
2023/03/01 09:28:23;;;;;;;46.57;27.67;;;;;;;;;;762747;184;918823;-64
2023/03/01 09:30:49;;;;;;;38.80;20.43;;;;;;;;;;766607;180;919653;-67
2023/03/01 09:33:16;;;;;;;41.83;24.87;;;;;;;;;;767248;179;915841;-64
2023/03/01 09:35:45;;;;;;;44.00;25.90;;;;;;;;;;774713;179;915365;-64
2023/03/01 09:38:07;;;;;;;32.30;19.57;;;;;;;;;;770449;181;914362;-68
2023/03/01 09:40:33;;;;;;;46.53;26.13;;;;;;;;;;773607;180;912601;-68
2023/03/01 09:42:59;;;;;;;46.92;25.90;;;;;;;;;;778038;181;880334;-68
2023/03/01 09:45:25;;;;;;;41.10;21.97;;;;;;;;;;773589;180;914376;-63
2023/03/01 09:47:51;;;;;;;48.03;28.73;;;;;;;;;;764563;181;918292;-64
2023/03/01 09:50:17;;;;;;;42.67;24.90;;;;;;;;;;773266;181;948169;-64
2023/03/01 09:52:46;;;;;;;28.13;16.03;;;;;;;;;;781395;178;907484;-64
2023/03/01 09:55:12;;;;;;;21.77;13.77;;;;;;;;;;776391;180;818754;-63
2023/03/01 09:57:39;;;;;;;48.60;27.03;;;;;;;;;;773246;180;919339;-64
2023/03/01 10:00:15;;;;;;;33.27;16.90;;;;;;;;;;774152;179;818713;-68
2023/03/01 10:02:41;;;;;;;45.47;28.47;;;;;;;;;;766363;183;918016;-63
2023/03/01 10:05:25;;;;;;;38.03;17.50;;;;;;;;;;761505;183;816627;-69
2023/03/01 10:08:02;;;;;;;21.57;14.10;;;;;;;;;;771193;180;815816;-69
2023/03/01 10:10:28;;;;;;;41.13;23.10;;;;;;;;;;772289;180;816125;-64
2023/03/01 10:12:54;;;;;;;48.93;24.60;;;;;;;;;;765968;181;918813;-65
2023/03/01 10:15:20;;;;;;;26.73;15.20;;;;;;;;;;776163;181;919498;-69
2023/03/01 10:17:46;;;;;;;36.80;15.63;;;;;;;;;;770787;181;920042;-69
2023/03/01 10:20:13;;;;;;;34.73;24.90;;;;;;;;;;770465;181;917614;-64
2023/03/01 10:22:39;;;;;;;43.67;23.90;;;;;;;;;;774836;181;918745;-64
2023/03/01 10:25:05;;;;;;;41.83;23.70;;;;;;;;;;774239;180;917056;-64
2023/03/01 10:27:35;;;;;;;37.40;19.97;;;;;;;;;;770792;181;919218;-64
2023/03/01 10:30:06;;;;;;;36.87;19.47;;;;;;;;;;769515;181;919931;-68
2023/03/01 10:32:32;;;;;;;63.03;29.37;;;;;;;;;;776052;181;919427;-69
2023/03/01 10:34:58;;;;;;;33.23;21.40;;;;;;;;;;770788;181;917544;-69
2023/03/01 10:37:25;;;;;;;32.17;17.30;;;;;;;;;;767547;181;938713;-71
2023/03/01 10:39:55;;;;;;;35.97;19.50;;;;;;;;;;771279;181;918931;-65
2023/03/01 10:42:23;;;;;;;46.60;26.10;;;;;;;;;;774771;178;919910;-70
2023/03/01 10:44:49;;;;;;;25.33;15.03;;;;;;;;;;772829;179;926149;-68
2023/03/01 10:47:15;;;;;;;43.47;25.20;;;;;;;;;;775208;180;919448;-63
2023/03/01 10:49:41;;;;;;;46.57;31.37;;;;;;;;;;783520;181;717642;-64
2023/03/01 10:52:11;;;;;;;44.33;25.40;;;;;;;;;;757791;183;819644;-69
2023/03/01 10:54:40;;;;;;;58.10;26.63;;;;;;;;;;764900;182;919163;-70
2023/03/01 10:57:03;;;;;;;47.00;19.27;;;;;;;;;;768036;181;916463;-65
2023/03/01 10:59:29;;;;;;;34.00;19.17;;;;;;;;;;776912;180;915674;-70
2023/03/01 11:02:11;;;;;;;46.20;25.10;;;;;;;;;;766646;181;913895;-69
2023/03/01 11:04:36;;;;;;;35.03;23.17;;;;;;;;;;759965;181;919573;-69
2023/03/01 11:07:02;;;;;;;33.28;21.05;;;;;;;;;;770898;179;936703;-70
2023/03/01 11:09:37;;;;;;;40.38;23.52;;;;;;;;;;777392;180;920480;-65
2023/03/01 11:11:57;;;;;;;24.97;17.73;;;;;;;;;;765844;182;918251;-70
2023/03/01 11:14:23;;;;;;;35.53;17.63;;;;;;;;;;758185;180;919387;-64
2023/03/01 11:16:49;;;;;;;37.03;19.30;;;;;;;;;;770498;181;918737;-69
2023/03/01 11:19:15;;;;;;;26.93;15.20;;;;;;;;;;775143;178;918892;-65
2023/03/01 11:21:41;;;;;;;33.97;22.13;;;;;;;;;;770424;181;925747;-65
2023/03/01 11:24:07;;;;;;;26.83;16.43;;;;;;;;;;773020;181;919183;-68
2023/03/01 11:26:33;;;;;;;24.97;12.97;;;;;;;;;;777827;181;920280;-65
2023/03/01 11:28:59;;;;;;;47.90;20.13;;;;;;;;;;766900;181;920727;-70
2023/03/01 11:31:24;;;;;;;43.77;25.80;;;;;;;;;;766593;181;825305;-65
2023/03/01 11:33:51;;;;;;;41.30;20.77;;;;;;;;;;774371;181;902248;-65
2023/03/01 11:36:28;;;;;;;46.47;28.33;;;;;;;;;;762661;179;1016871;-70
2023/03/01 11:38:54;;;;;;;42.47;23.87;;;;;;;;;;768741;181;814233;-69
2023/03/01 11:41:21;;;;;;;33.08;18.02;;;;;;;;;;768013;181;1016307;-64
2023/03/01 11:43:46;;;;;;;32.43;17.33;;;;;;;;;;775093;181;918630;-68
2023/03/01 11:46:19;;;;;;;47.53;27.30;;;;;;;;;;772555;181;784831;-65
2023/03/01 11:48:48;;;;;;;41.20;22.63;;;;;;;;;;773002;180;815362;-68
2023/03/01 11:51:29;;;;;;;48.17;27.37;;;;;;;;;;769707;181;923242;-68
2023/03/01 11:53:56;;;;;;;47.43;27.27;;;;;;;;;;761118;181;917945;-66
2023/03/01 11:56:39;;;;;;;41.83;19.10;;;;;;;;;;774770;180;923131;-65
2023/03/01 11:59:07;;;;;;;43.50;21.67;;;;;;;;;;770286;180;883589;-64
2023/03/01 12:01:39;;;;;;;43.13;25.77;;;;;;;;;;773379;181;918553;-64
2023/03/01 12:04:11;;;;;;;49.43;25.17;;;;;;;;;;773839;181;926949;-64
2023/03/01 12:06:40;;;;;;;32.90;17.23;;;;;;;;;;773083;181;919072;-69
2023/03/01 12:09:07;;;;;;;29.52;16.75;;;;;;;;;;768617;182;918470;-65
2023/03/01 12:11:35;;;;;;;29.57;21.90;;;;;;;;;;767438;182;871163;-70
2023/03/01 12:14:19;;;;;;;38.70;21.90;;;;;;;;;;770170;180;918462;-67
2023/03/01 12:16:51;;;;;;;64.60;34.63;;;;;;;;;;769804;180;1024484;-68
2023/03/01 12:19:20;;;;;;;30.27;17.40;;;;;;;;;;763978;181;919542;-64
2023/03/01 12:21:52;;;;;;;55.80;26.53;;;;;;;;;;761240;181;918350;-65
2023/03/01 12:24:33;;;;;;;49.17;24.80;;;;;;;;;;771763;180;916149;-64
2023/03/01 12:27:09;;;;;;;41.27;20.63;;;;;;;;;;767565;181;916816;-65
2023/03/01 12:29:35;;;;;;;51.27;29.93;;;;;;;;;;761421;182;920108;-69
2023/03/01 12:32:07;;;;;;;49.15;30.05;;;;;;;;;;765103;182;917438;-69
2023/03/01 12:34:49;;;;;;;48.40;27.10;;;;;;;;;;772395;180;925969;-69
2023/03/01 12:37:15;;;;;;;50.30;28.57;;;;;;;;;;764529;179;918335;-65
2023/03/01 12:39:59;;;;;;;44.67;24.40;;;;;;;;;;771827;182;917060;-65
2023/03/01 12:42:30;;;;;;;52.47;27.83;;;;;;;;;;767971;179;919039;-66
2023/03/01 12:45:02;;;;;;;47.50;29.60;;;;;;;;;;768717;183;910919;-70
2023/03/01 12:47:29;;;;;;;33.20;21.30;;;;;;;;;;769825;181;918887;-66
2023/03/01 12:49:55;;;;;;;39.37;20.33;;;;;;;;;;771018;181;918681;-66
2023/03/01 12:52:23;;;;;;;47.85;24.98;;;;;;;;;;775886;181;918459;-70
2023/03/01 12:54:49;;;;;;;49.73;28.03;;;;;;;;;;768812;181;940664;-65
2023/03/01 12:57:15;;;;;;;45.77;23.20;;;;;;;;;;765979;180;916516;-69
2023/03/01 12:59:43;;;;;;;38.47;19.47;;;;;;;;;;770128;181;921398;-69
2023/03/01 13:02:09;;;;;;;47.60;31.87;;;;;;;;;;771239;181;918445;-65
2023/03/01 13:04:44;;;;;;;56.43;26.83;;;;;;;;;;767618;181;912806;-66
2023/03/01 13:07:27;;;;;;;68.93;35.60;;;;;;;;;;766516;181;921812;-66
2023/03/01 13:10:08;;;;;;;45.77;25.27;;;;;;;;;;762957;181;918554;-66
2023/03/01 13:12:40;;;;;;;31.37;19.70;;;;;;;;;;773703;180;715271;-70
2023/03/01 13:15:06;;;;;;;57.63;34.97;;;;;;;;;;770998;180;920903;-65
2023/03/01 13:17:32;;;;;;;59.33;35.80;;;;;;;;;;771434;181;919502;-71
2023/03/01 13:19:57;;;;;;;69.63;40.10;;;;;;;;;;771061;181;921173;-65
2023/03/01 13:22:25;;;;;;;63.33;31.97;;;;;;;;;;768548;181;914554;-71
2023/03/01 13:24:51;;;;;;;49.00;26.40;;;;;;;;;;768923;180;816558;-66
2023/03/01 13:27:20;;;;;;;61.67;34.73;;;;;;;;;;773998;181;915684;-67
2023/03/01 13:29:47;;;;;;;61.17;32.90;;;;;;;;;;769604;180;876279;-72
2023/03/01 13:32:18;;;;;;;38.67;24.70;;;;;;;;;;768771;180;904492;-66
2023/03/01 13:34:45;;;;;;;56.50;28.97;;;;;;;;;;770711;181;916086;-69
2023/03/01 13:37:11;;;;;;;69.23;36.20;;;;;;;;;;774195;177;919003;-70
2023/03/01 13:39:39;;;;;;;53.33;25.73;;;;;;;;;;767598;181;919188;-71
2023/03/01 13:42:04;;;;;;;61.73;30.43;;;;;;;;;;772090;181;912522;-66
2023/03/01 13:44:32;;;;;;;76.37;41.30;;;;;;;;;;770130;180;912670;-70
2023/03/01 13:46:59;;;;;;;50.75;28.30;;;;;;;;;;768357;181;918715;-70
2023/03/01 13:49:26;;;;;;;57.60;29.20;;;;;;;;;;770154;181;923265;-66
2023/03/01 13:51:52;;;;;;;62.77;28.37;;;;;;;;;;772223;180;918288;-66
2023/03/01 13:54:26;;;;;;;66.43;34.77;;;;;;;;;;772740;178;816154;-70
2023/03/01 13:56:52;;;;;;;65.43;32.70;;;;;;;;;;766689;181;995903;-66
2023/03/01 13:59:18;;;;;;;62.95;33.45;;;;;;;;;;768364;181;819831;-66
2023/03/01 14:01:44;;;;;;;62.23;38.00;;;;;;;;;;774703;180;817666;-65